HKMO 060800Z 14014KT 9999 SCT025 29/20 Q1016 NOSIG
From batch tds/metars/production/2022/10/6/h08_m23_metars.cache.csv.gz
Observed at (about 2 hours ago)
Identifier HKMO
HKMO 060730Z 16011KT 9999 SCT024 29/20 Q1016 NOSIG
From batch tds/metars/production/2022/10/6/h07_m52_metars.cache.csv.gz
Observed at (about 3 hours ago)
Identifier HKMO
HKMO 060600Z 19006KT 9999 BKN022 25/22 Q1017 NOSIG
From batch tds/metars/production/2022/10/6/h06_m20_metars.cache.csv.gz
Observed at (about 4 hours ago)
Identifier HKMO
HKMO 060530Z 20005KT 9999 -SHRA BKN022 25/22 Q1016 NOSIG
From batch tds/metars/production/2022/10/6/h05_m57_metars.cache.csv.gz
Observed at (about 5 hours ago)
Identifier HKMO
HKMO 060430Z 20003KT 9999 BKN021 24/22 Q1016 NOSIG
From batch tds/metars/production/2022/10/6/h04_m54_metars.cache.csv.gz
Observed at (about 6 hours ago)
Identifier HKMO
HKMO 060330Z 22004KT 9999 SCT020 23/21 Q1015 NOSIG
From batch tds/metars/production/2022/10/6/h04_m25_metars.cache.csv.gz
Observed at (about 7 hours ago)
Identifier HKMO
HKMO 060200Z 22004KT 9999 BKN019 24/22 Q1014 NOSIG
From batch tds/metars/production/2022/10/6/h02_m52_metars.cache.csv.gz
Observed at (about 8 hours ago)
Identifier HKMO
HKMO 052200Z 18008KT 9999 FEW020 25/21 Q1014 NOSIG
From batch tds/metars/production/2022/10/5/h22_m59_metars.cache.csv.gz
Observed at (about 12 hours ago)
Identifier HKMO
HKMO 051800Z 15008KT 9999 BKN022 BKN070 25/21 Q1015 NOSIG
From batch tds/metars/production/2022/10/5/h18_m53_metars.cache.csv.gz
Observed at (about 16 hours ago)
Identifier HKMO
HKMO 051730Z 15010KT 9999 SCT022 BKN070 25/21 Q1015 NOSIG
From batch tds/metars/production/2022/10/5/h18_m26_metars.cache.csv.gz
Observed at (about 17 hours ago)
Identifier HKMO
HKMO 051630Z 15009KT 9999 FEW023 25/20 Q1014 NOSIG
From batch tds/metars/production/2022/10/5/h16_m57_metars.cache.csv.gz
Observed at (about 18 hours ago)
Identifier HKMO
HKMO 051500Z 17011KT 9999 FEW024 25/20 Q1013 NOSIG
From batch tds/metars/production/2022/10/5/h15_m24_metars.cache.csv.gz
Observed at (about 19 hours ago)
Identifier HKMO
HKMO 051400Z 16015KT 9999 SCT025 26/20 Q1013 NOSIG
From batch tds/metars/production/2022/10/5/h14_m58_metars.cache.csv.gz
Observed at (about 20 hours ago)
Identifier HKMO
HKMO 051300Z 15015KT 9999 FEW026 28/20 Q1013 NOSIG
From batch tds/metars/production/2022/10/5/h13_m28_metars.cache.csv.gz
Observed at (about 21 hours ago)
Identifier HKMO
HKMO 051230Z 17015KT 9999 FEW027 29/19 Q1013 NOSIG
From batch tds/metars/production/2022/10/5/h12_m57_metars.cache.csv.gz
Observed at (about 22 hours ago)
Identifier HKMO
HKMO 051130Z 16015KT 9999 FEW027 29/20 Q1013 NOSIG
From batch tds/metars/production/2022/10/5/h11_m56_metars.cache.csv.gz
Observed at (about 23 hours ago)
Identifier HKMO
HKMO 051100Z 15015KT 9999 FEW027 29/19 Q1013 NOSIG
From batch tds/metars/production/2022/10/5/h11_m28_metars.cache.csv.gz
Observed at (about 23 hours ago)
Identifier HKMO
talk